Time;durP1;ratioP1;P1;durP2;ratioP2;P2;SDS_P1;SDS_P2;PMS_P1;PMS_P2;Temp;Humidity;BMP_temperature;BMP_pressure;BME280_temperature;BME280_humidity;BME280_pressure;Samples;Min_cycle;Max_cycle;Signal;HPM_P1;HPM_P2
2022/05/31 00:01:51;;;;;;;12.07;7.38;;;;;;;7.01;81.10;99275.97;8132407;29;20525;-71
2022/05/31 00:05:52;;;;;;;14.10;9.00;;;;;;;7.02;81.14;99272.19;8161100;29;20063;-71
2022/05/31 00:09:53;;;;;;;17.85;8.98;;;;;;;6.97;81.34;99274.94;8199526;28;20047;-71
2022/05/31 00:13:54;;;;;;;12.40;7.30;;;;;;;6.95;81.63;99281.66;8212958;28;20055;-71
2022/05/31 00:17:55;;;;;;;17.90;8.68;;;;;;;6.92;81.64;99283.03;8212968;28;20053;-73
2022/05/31 00:22:22;;;;;;;14.90;8.90;;;;;;;6.92;81.87;99288.41;8197024;29;20638;-72
2022/05/31 00:26:24;;;;;;;13.30;8.15;;;;;;;6.90;81.63;99279.81;8163320;29;20048;-72
2022/05/31 00:30:25;;;;;;;11.63;8.07;;;;;;;6.89;81.96;99278.19;8135331;29;20575;-72
2022/05/31 00:34:27;;;;;;;12.75;7.95;;;;;;;6.91;82.21;99281.41;8163612;29;20059;-72
2022/05/31 00:38:27;;;;;;;12.30;7.22;;;;;;;6.91;81.97;99281.41;8131540;29;20052;-73
2022/05/31 00:42:28;;;;;;;13.35;6.78;;;;;;;6.86;81.94;99289.50;8147286;29;20055;-73
2022/05/31 00:46:46;;;;;;;12.00;7.45;;;;;;;6.75;82.35;99282.59;8166316;29;20556;-71
2022/05/31 00:51:07;;;;;;;14.23;7.72;;;;;;;6.73;82.36;99284.75;8170164;29;20044;-72
2022/05/31 00:55:25;;;;;;;10.68;7.45;;;;;;;6.71;82.21;99303.03;8169461;29;20044;-71
2022/05/31 00:59:37;;;;;;;12.38;7.55;;;;;;;6.66;82.37;99301.16;8154076;29;20047;-72
2022/05/31 01:03:40;;;;;;;17.45;8.68;;;;;;;6.64;82.25;99292.59;8197124;28;20055;-72
2022/05/31 01:07:41;;;;;;;20.05;9.25;;;;;;;6.61;82.22;99293.16;8204746;28;20047;-72
2022/05/31 01:11:43;;;;;;;15.93;10.32;;;;;;;6.62;82.37;99299.31;8218581;28;20055;-71
2022/05/31 01:15:45;;;;;;;12.02;8.77;;;;;;;6.60;82.66;99301.50;8218365;28;20057;-72
2022/05/31 01:19:57;;;;;;;18.60;10.00;;;;;;;6.60;82.62;99306.84;8204995;28;20071;-72
2022/05/31 01:24:09;;;;;;;16.35;10.05;;;;;;;6.63;82.21;99306.28;8204004;28;20055;-71
2022/05/31 01:28:29;;;;;;;15.07;9.07;;;;;;;6.60;82.71;99306.84;8202518;29;20050;-72
2022/05/31 01:32:31;;;;;;;15.43;10.48;;;;;;;6.58;82.64;99314.38;8203040;29;20051;-72
2022/05/31 01:36:40;;;;;;;14.30;9.95;;;;;;;6.56;82.92;99311.16;8202165;29;20408;-73
2022/05/31 01:41:06;;;;;;;15.90;9.52;;;;;;;6.59;82.85;99315.97;8202627;29;20053;-71
2022/05/31 01:45:38;;;;;;;14.60;9.13;;;;;;;6.58;82.94;99314.38;8201914;28;20043;-72
2022/05/31 01:49:42;;;;;;;15.02;8.68;;;;;;;6.54;82.83;99318.69;8201395;28;20058;-71
2022/05/31 01:53:43;;;;;;;12.50;8.57;;;;;;;6.50;82.88;99314.97;8203823;28;20129;-72
2022/05/31 01:57:49;;;;;;;14.20;7.82;;;;;;;6.46;83.52;99316.56;8201120;28;20075;-72
2022/05/31 02:01:52;;;;;;;11.85;7.47;;;;;;;6.44;83.51;99313.38;8202874;28;20051;-72
2022/05/31 02:05:54;;;;;;;9.15;6.90;;;;;;;6.38;83.55;99314.50;8202695;28;20055;-71
2022/05/31 02:09:55;;;;;;;11.80;6.78;;;;;;;6.33;83.74;99316.13;8203088;28;20047;-72
2022/05/31 02:13:58;;;;;;;12.07;6.25;;;;;;;6.23;84.03;99308.13;8202557;28;20047;-73
2022/05/31 02:17:59;;;;;;;16.75;6.15;;;;;;;6.20;84.03;99307.84;8202263;28;20062;-71
2022/05/31 02:22:04;;;;;;;9.55;6.13;;;;;;;6.18;84.02;99321.56;8202660;28;20051;-72
2022/05/31 02:26:05;;;;;;;8.80;5.80;;;;;;;6.18;83.88;99316.19;8201750;29;20055;-72
2022/05/31 02:30:07;;;;;;;7.97;5.40;;;;;;;6.16;83.88;99312.97;8202280;28;20039;-72
2022/05/31 02:34:08;;;;;;;10.57;5.40;;;;;;;6.16;83.73;99312.97;8200352;28;20051;-72
2022/05/31 02:38:10;;;;;;;9.27;5.72;;;;;;;6.15;83.90;99311.38;8201926;28;20051;-72
2022/05/31 02:42:11;;;;;;;7.57;5.40;;;;;;;6.14;83.78;99304.38;8202129;28;20496;-71
2022/05/31 02:46:12;;;;;;;7.90;5.18;;;;;;;6.12;83.73;99306.56;8202086;28;20051;-72
2022/05/31 02:50:14;;;;;;;9.82;5.30;;;;;;;6.10;83.90;99300.66;8202569;28;20044;-72
2022/05/31 02:54:18;;;;;;;7.95;5.40;;;;;;;6.10;84.04;99318.63;8202129;28;20382;-72
2022/05/31 02:58:20;;;;;;;8.52;4.90;;;;;;;6.08;83.96;99310.84;8201857;28;20142;-72
2022/05/31 03:02:21;;;;;;;6.18;4.80;;;;;;;6.05;84.07;99311.41;8215187;28;20051;-73
2022/05/31 03:06:22;;;;;;;5.82;4.40;;;;;;;6.03;84.24;99318.91;8201225;28;20043;-73
2022/05/31 03:10:25;;;;;;;10.20;5.60;;;;;;;6.02;84.09;99322.69;8200672;28;20877;-73
2022/05/31 03:14:30;;;;;;;9.60;4.95;;;;;;;6.03;84.46;99312.78;8214817;28;20051;-72
2022/05/31 03:18:37;;;;;;;8.95;5.25;;;;;;;6.04;84.38;99320.53;8201339;28;20051;-72
2022/05/31 03:22:45;;;;;;;6.45;4.82;;;;;;;6.05;84.31;99316.75;8199094;28;20130;-72
2022/05/31 03:26:47;;;;;;;6.93;5.00;;;;;;;6.06;84.46;99315.69;8200855;28;20429;-72
2022/05/31 03:30:48;;;;;;;8.85;5.05;;;;;;;6.09;84.44;99317.81;8200032;28;20538;-72
2022/05/31 03:34:50;;;;;;;7.80;4.30;;;;;;;6.09;84.20;99323.19;8200743;28;20392;-72
2022/05/31 03:38:51;;;;;;;5.93;4.20;;;;;;;6.14;84.24;99331.19;8199580;28;20487;-73
2022/05/31 03:42:52;;;;;;;6.55;4.88;;;;;;;6.22;84.10;99333.34;8214020;28;20491;-72
2022/05/31 03:46:53;;;;;;;7.13;4.85;;;;;;;6.32;84.23;99327.94;8216435;28;20159;-72
2022/05/31 03:51:02;;;;;;;6.07;4.22;;;;;;;6.42;84.10;99331.63;8197192;28;20504;-72
2022/05/31 03:55:03;;;;;;;8.23;5.70;;;;;;;6.48;83.95;99333.22;8172705;28;20515;-72
2022/05/31 03:59:05;;;;;;;9.50;5.63;;;;;;;6.53;83.91;99341.22;8179638;28;20567;-71
2022/05/31 04:03:05;;;;;;;7.15;4.95;;;;;;;6.64;83.94;99340.09;8172720;28;20047;-72
2022/05/31 04:07:06;;;;;;;6.70;4.45;;;;;;;6.79;83.72;99353.44;8171157;29;20043;-72
2022/05/31 04:11:07;;;;;;;5.57;4.32;;;;;;;6.95;83.77;99362.19;8168088;28;20142;-72
2022/05/31 04:15:09;;;;;;;9.25;5.47;;;;;;;7.11;83.35;99361.81;8171891;28;20066;-72
2022/05/31 04:19:10;;;;;;;20.95;13.30;;;;;;;7.29;83.29;99362.22;8177045;29;20058;-72
2022/05/31 04:27:30;;;;;;;39.28;21.60;;;;;;;7.62;84.57;99362.19;8176977;28;20090;-73
2022/05/31 04:31:32;;;;;;;35.72;18.70;;;;;;;7.79;84.26;99355.59;8172663;29;20050;-72
2022/05/31 04:35:32;;;;;;;29.38;17.08;;;;;;;7.93;84.26;99362.69;8168792;29;20577;-73
2022/05/31 04:39:33;;;;;;;24.33;16.00;;;;;;;8.06;83.83;99362.03;8171851;29;20052;-72
2022/05/31 04:43:34;;;;;;;28.33;17.63;;;;;;;8.19;84.44;99354.38;8178794;28;20067;-73
2022/05/31 04:47:36;;;;;;;26.10;16.50;;;;;;;8.33;84.32;99371.44;8168360;29;20075;-72
2022/05/31 04:51:37;;;;;;;27.33;16.42;;;;;;;8.43;84.12;99366.75;8166063;29;20051;-72
2022/05/31 04:55:38;;;;;;;32.05;18.38;;;;;;;8.57;84.31;99366.84;8177516;29;20139;-72
2022/05/31 04:59:39;;;;;;;24.40;16.60;;;;;;;8.69;84.11;99364.53;8175168;28;20047;-72
2022/05/31 05:03:44;;;;;;;27.50;16.63;;;;;;;8.83;84.26;99370.78;8197523;28;20055;-71
2022/05/31 05:07:44;;;;;;;22.10;13.73;;;;;;;8.96;83.77;99369.28;8194840;29;20051;-72
2022/05/31 05:11:46;;;;;;;23.70;14.10;;;;;;;9.09;83.87;99373.94;8197835;28;20380;-73
2022/05/31 05:15:47;;;;;;;10.57;6.95;;;;;;;9.22;84.22;99377.78;8185975;28;20612;-72
2022/05/31 05:19:48;;;;;;;11.52;7.10;;;;;;;9.39;84.31;99380.75;8194457;28;20136;-73
2022/05/31 05:23:52;;;;;;;9.38;5.80;;;;;;;9.53;83.91;99378.88;8197506;28;20051;-72
2022/05/31 05:27:53;;;;;;;7.88;5.38;;;;;;;9.63;83.20;99377.91;8196065;28;20134;-73
2022/05/31 05:31:57;;;;;;;10.43;5.85;;;;;;;9.72;82.94;99379.66;8198144;28;20047;-72
2022/05/31 05:35:58;;;;;;;9.38;6.32;;;;;;;9.82;82.71;99380.56;8188566;28;20046;-72
2022/05/31 05:40:00;;;;;;;11.95;7.40;;;;;;;9.96;83.27;99381.38;8180469;29;20044;-72
2022/05/31 05:44:01;;;;;;;9.70;6.65;;;;;;;10.12;82.45;99380.00;8173131;29;20056;-72
2022/05/31 05:48:03;;;;;;;8.82;6.35;;;;;;;10.23;81.78;99365.25;8175039;29;20051;-71
2022/05/31 05:52:06;;;;;;;8.95;5.38;;;;;;;10.35;80.92;99373.66;8179138;29;20055;-73
2022/05/31 05:56:08;;;;;;;13.18;6.30;;;;;;;10.48;80.43;99362.03;8173736;29;20044;-72
2022/05/31 06:00:10;;;;;;;10.20;6.18;;;;;;;10.63;80.43;99370.94;8180223;28;20036;-73
2022/05/31 06:04:15;;;;;;;6.53;4.90;;;;;;;10.78;79.46;99365.22;8217135;28;20559;-73
2022/05/31 06:08:34;;;;;;;7.85;4.53;;;;;;;10.94;78.26;99374.59;8203982;28;20051;-72
2022/05/31 06:12:38;;;;;;;4.55;3.05;;;;;;;10.98;77.95;99378.28;8200636;28;20063;-73
2022/05/31 06:16:43;;;;;;;8.02;4.70;;;;;;;11.05;77.87;99386.75;8202278;29;20133;-72
2022/05/31 06:21:05;;;;;;;9.27;5.63;;;;;;;11.21;77.96;99373.69;8201916;29;20057;-73
2022/05/31 06:25:08;;;;;;;11.02;6.43;;;;;;;11.33;77.63;99380.16;8202459;28;20058;-73
2022/05/31 06:29:09;;;;;;;8.52;4.85;;;;;;;11.46;77.40;99396.63;8184900;29;20048;-72
2022/05/31 06:33:10;;;;;;;4.28;3.47;;;;;;;11.61;76.64;99393.53;8202869;28;20055;-72
2022/05/31 06:37:14;;;;;;;5.95;3.55;;;;;;;11.74;75.75;99398.09;8202369;28;20055;-73
2022/05/31 06:41:15;;;;;;;5.80;3.85;;;;;;;11.85;75.02;99402.16;8202507;28;20142;-73
2022/05/31 06:45:17;;;;;;;4.32;3.35;;;;;;;11.98;74.11;99411.31;8201580;28;20058;-73
2022/05/31 06:49:18;;;;;;;6.65;4.30;;;;;;;12.06;73.69;99395.09;8215908;28;20521;-72
2022/05/31 06:57:40;;;;;;;7.75;4.88;;;;;;;12.33;73.30;99398.72;8202039;29;20055;-72
2022/05/31 07:01:41;;;;;;;7.35;4.35;;;;;;;12.41;73.06;99406.91;8202073;28;20061;-73
2022/05/31 07:05:42;;;;;;;8.02;4.38;;;;;;;12.52;72.68;99412.84;8201370;28;20105;-72
2022/05/31 07:09:43;;;;;;;27.48;14.35;;;;;;;12.61;72.07;99400.09;8201755;28;20083;-73
2022/05/31 07:13:44;;;;;;;58.63;23.45;;;;;;;12.70;72.16;99403.63;8215161;28;20055;-72
2022/05/31 07:17:46;;;;;;;9.13;3.88;;;;;;;12.84;69.63;99396.19;8201109;28;20488;-72
2022/05/31 07:21:48;;;;;;;5.72;3.83;;;;;;;12.97;69.22;99392.53;8201481;28;20117;-73
2022/05/31 07:25:52;;;;;;;6.63;3.90;;;;;;;13.11;69.31;99398.63;8199361;28;20126;-73
2022/05/31 07:29:54;;;;;;;6.38;4.18;;;;;;;13.17;69.90;99401.97;8200948;28;20047;-73
2022/05/31 07:33:55;;;;;;;7.50;5.15;;;;;;;13.26;69.94;99404.72;8200992;28;20150;-73
2022/05/31 07:37:56;;;;;;;64.10;22.98;;;;;;;13.36;68.42;99393.53;8201044;28;20499;-73
2022/05/31 07:41:58;;;;;;;6.32;3.42;;;;;;;13.48;66.40;99401.84;8200745;28;20047;-72
2022/05/31 07:46:10;;;;;;;4.53;2.85;;;;;;;13.63;66.04;99393.19;8183227;28;20106;-73
2022/05/31 07:50:11;;;;;;;6.38;2.88;;;;;;;13.80;64.72;99409.44;8185045;29;20043;-73
2022/05/31 07:54:12;;;;;;;3.85;2.42;;;;;;;13.93;65.13;99397.59;8213982;28;20047;-73
2022/05/31 07:58:33;;;;;;;5.07;2.33;;;;;;;14.11;64.69;99397.56;8213503;28;20431;-73
2022/05/31 08:02:34;;;;;;;5.38;2.70;;;;;;;14.30;63.77;99400.69;8199434;28;20503;-75
2022/05/31 08:06:35;;;;;;;5.10;2.50;;;;;;;14.54;62.71;99395.47;8200113;28;20079;-72
2022/05/31 08:10:36;;;;;;;4.40;2.30;;;;;;;14.70;62.83;99388.34;8200063;28;20070;-73
2022/05/31 08:14:36;;;;;;;5.60;2.70;;;;;;;14.86;62.70;99385.84;8199843;28;20078;-72
2022/05/31 08:18:39;;;;;;;5.93;2.60;;;;;;;14.98;62.67;99387.84;8199654;28;20057;-72
2022/05/31 08:22:39;;;;;;;8.48;3.13;;;;;;;15.10;61.29;99390.66;8199553;28;20055;-72
2022/05/31 08:26:40;;;;;;;4.20;2.47;;;;;;;15.15;60.54;99390.47;8199429;28;20055;-75
2022/05/31 08:30:41;;;;;;;3.92;2.20;;;;;;;15.25;60.13;99392.78;8196622;28;20058;-73
2022/05/31 08:34:42;;;;;;;3.33;2.08;;;;;;;15.36;59.56;99383.09;8164674;29;20132;-72
2022/05/31 08:38:43;;;;;;;3.03;2.30;;;;;;;15.46;58.98;99388.13;8198570;28;20086;-73
2022/05/31 08:42:50;;;;;;;4.68;2.75;;;;;;;15.50;55.11;99389.03;8198379;28;20708;-72
2022/05/31 08:47:22;;;;;;;3.28;2.92;;;;;;;15.52;57.57;99381.38;8199007;28;20376;-73
2022/05/31 08:51:53;;;;;;;3.83;2.88;;;;;;;15.61;57.96;99379.34;8213466;28;20043;-73
2022/05/31 09:00:28;;;;;;;3.25;2.00;;;;;;;15.98;55.76;99371.28;8211563;28;20469;-72
2022/05/31 09:05:03;;;;;;;6.38;2.20;;;;;;;16.16;55.15;99377.34;8195348;29;20120;-73
2022/05/31 09:09:20;;;;;;;3.50;2.35;;;;;;;16.29;55.19;99377.00;8150902;29;20051;-73
2022/05/31 09:13:58;;;;;;;8.13;2.10;;;;;;;16.37;54.25;99367.94;8199124;28;20071;-73
2022/05/31 09:18:22;;;;;;;5.00;2.15;;;;;;;16.52;53.87;99365.66;8201136;28;20055;-72
2022/05/31 09:22:22;;;;;;;5.30;2.38;;;;;;;16.73;52.52;99363.63;8185046;28;20062;-72
2022/05/31 09:26:35;;;;;;;2.70;2.10;;;;;;;16.88;52.52;99360.97;8200715;28;20495;-73
2022/05/31 09:30:40;;;;;;;3.08;2.17;;;;;;;16.95;51.14;99354.94;8200628;28;20053;-72
2022/05/31 09:35:07;;;;;;;4.28;1.70;;;;;;;17.15;51.07;99353.97;8200522;29;20074;-73
2022/05/31 09:39:08;;;;;;;5.15;3.30;;;;;;;17.27;50.61;99355.88;8181889;29;20431;-73
2022/05/31 09:43:30;;;;;;;11.18;3.90;;;;;;;17.29;50.04;99346.19;8200236;28;20114;-72
2022/05/31 09:47:31;;;;;;;5.07;2.50;;;;;;;17.33;50.37;99335.38;8204213;28;20075;-73
2022/05/31 09:51:38;;;;;;;4.18;2.40;;;;;;;17.55;51.49;99339.50;8203956;28;20055;-73
2022/05/31 10:00:04;;;;;;;6.03;2.50;;;;;;;17.84;50.56;99336.41;8203012;28;20075;-73
2022/05/31 10:04:10;;;;;;;3.75;2.50;;;;;;;17.95;48.18;99321.06;8218418;28;20039;-73
2022/05/31 10:08:32;;;;;;;2.88;2.20;;;;;;;17.93;46.50;99309.69;8202936;28;20058;-74
2022/05/31 10:12:34;;;;;;;4.20;2.58;;;;;;;18.02;48.20;99315.00;8200491;28;20095;-74
2022/05/31 10:16:39;;;;;;;6.82;2.50;;;;;;;18.25;49.65;99309.69;8217547;28;20562;-73
2022/05/31 10:21:02;;;;;;;4.47;2.20;;;;;;;18.33;48.46;99303.25;8200047;28;20429;-74
2022/05/31 10:25:21;;;;;;;4.40;2.13;;;;;;;18.53;48.30;99296.69;8216752;28;20147;-72
2022/05/31 10:29:29;;;;;;;5.00;2.13;;;;;;;18.66;47.77;99294.66;8203050;28;20055;-74
2022/05/31 10:33:31;;;;;;;6.15;2.15;;;;;;;18.89;48.30;99299.06;8216377;28;20063;-73
2022/05/31 10:37:32;;;;;;;3.47;2.00;;;;;;;18.96;48.32;99288.28;8217522;28;20082;-73
2022/05/31 10:41:35;;;;;;;3.40;2.20;;;;;;;19.28;48.41;99293.59;8216325;28;20479;-72
2022/05/31 10:45:38;;;;;;;4.00;2.03;;;;;;;19.70;47.21;99297.16;8202509;28;20058;-74
2022/05/31 10:49:44;;;;;;;2.22;1.88;;;;;;;20.03;45.44;99295.75;8202474;28;20071;-73
2022/05/31 10:54:10;;;;;;;3.40;1.80;;;;;;;20.39;45.14;99292.44;8201270;29;20528;-73
2022/05/31 10:58:32;;;;;;;4.40;2.17;;;;;;;20.08;44.21;99298.19;8199544;29;20070;-74
2022/05/31 11:03:07;;;;;;;2.50;2.03;;;;;;;19.86;43.04;99288.03;8216340;28;20055;-72
2022/05/31 11:07:14;;;;;;;4.55;1.70;;;;;;;19.81;44.97;99284.44;8201768;28;20043;-73
2022/05/31 11:11:41;;;;;;;6.78;1.88;;;;;;;19.45;46.11;99282.22;8201593;28;20050;-73
2022/05/31 11:15:42;;;;;;;2.45;1.85;;;;;;;19.77;47.22;99278.09;8214889;28;20040;-73
2022/05/31 11:19:52;;;;;;;2.95;2.08;;;;;;;20.29;45.20;99276.59;8201742;28;20463;-73
2022/05/31 11:24:12;;;;;;;2.20;1.88;;;;;;;20.70;45.41;99252.09;8216538;28;20054;-72
2022/05/31 11:28:36;;;;;;;3.22;1.92;;;;;;;21.00;43.35;99261.91;8201954;28;20047;-72
2022/05/31 11:32:59;;;;;;;2.70;2.03;;;;;;;20.93;43.84;99255.53;8200751;28;20043;-72
2022/05/31 11:37:15;;;;;;;3.22;1.90;;;;;;;20.69;45.24;99256.78;8200504;28;20090;-72
2022/05/31 11:41:33;;;;;;;4.85;1.80;;;;;;;21.15;44.77;99251.88;8200600;28;20487;-73
2022/05/31 11:45:55;;;;;;;4.10;2.10;;;;;;;21.00;44.27;99244.63;8200412;28;20130;-73
2022/05/31 11:50:29;;;;;;;2.25;1.73;;;;;;;20.69;45.51;99242.28;8219901;28;20057;-74
2022/05/31 11:55:25;;;;;;;4.00;1.77;;;;;;;20.86;44.67;99238.97;8201265;28;20059;-73
2022/05/31 11:59:33;;;;;;;2.45;1.75;;;;;;;21.52;44.73;99240.13;8199701;28;20495;-73
2022/05/31 12:03:40;;;;;;;4.90;1.60;;;;;;;22.06;42.75;99233.91;8197727;29;20058;-73
2022/05/31 12:07:47;;;;;;;4.00;1.73;;;;;;;21.46;41.44;99229.50;8200104;28;20047;-73
2022/05/31 12:11:56;;;;;;;4.72;1.67;;;;;;;20.84;43.68;99219.34;8164649;29;20146;-74
2022/05/31 12:15:58;;;;;;;5.38;1.88;;;;;;;20.93;45.18;99206.13;8199913;28;20047;-73
2022/05/31 12:20:04;;;;;;;2.67;1.40;;;;;;;21.56;43.99;99217.00;8200089;28;20385;-72
2022/05/31 12:24:38;;;;;;;6.38;1.65;;;;;;;21.97;43.57;99198.50;8196691;29;20158;-72
2022/05/31 12:28:48;;;;;;;1.73;1.50;;;;;;;22.35;42.72;99201.91;8202933;28;20102;-73
2022/05/31 12:32:53;;;;;;;6.40;1.85;;;;;;;22.67;42.56;99197.34;8194665;29;20455;-75
2022/05/31 12:37:02;;;;;;;2.08;1.58;;;;;;;22.83;41.44;99195.09;8194834;28;20064;-73
2022/05/31 12:41:03;;;;;;;5.55;1.70;;;;;;;22.84;41.07;99190.38;8195522;28;20055;-72
2022/05/31 12:45:33;;;;;;;2.28;1.67;;;;;;;22.71;40.76;99184.41;8201472;28;20054;-73
2022/05/31 12:49:35;;;;;;;5.22;1.60;;;;;;;22.44;41.82;99174.81;8193115;28;20527;-72
2022/05/31 12:53:39;;;;;;;4.03;1.70;;;;;;;22.19;41.96;99177.44;8212865;28;20149;-72
2022/05/31 13:02:18;;;;;;;2.20;1.40;;;;;;;22.89;37.51;99167.97;8195775;28;20069;-73
2022/05/31 13:06:28;;;;;;;3.78;1.50;;;;;;;22.54;39.85;99160.31;8196644;28;20055;-72
2022/05/31 13:10:35;;;;;;;3.65;1.52;;;;;;;22.14;41.31;99164.84;8192765;28;20334;-72
2022/05/31 13:23:19;;;;;;;2.60;1.55;;;;;;;21.36;43.58;99169.72;8197535;28;20047;-73
2022/05/31 13:27:27;;;;;;;5.80;1.55;;;;;;;21.43;43.46;99158.78;8209920;28;20054;-73
2022/05/31 13:31:30;;;;;;;2.60;1.80;;;;;;;21.37;43.80;99154.81;8197623;28;20051;-73
2022/05/31 13:35:32;;;;;;;4.63;1.70;;;;;;;21.38;43.46;99155.59;8190329;28;20071;-74
2022/05/31 13:39:42;;;;;;;7.22;2.05;;;;;;;21.32;43.38;99157.91;8196115;29;20039;-72
2022/05/31 13:43:55;;;;;;;8.77;2.20;;;;;;;21.28;44.15;99157.09;8196285;28;20147;-72
2022/05/31 13:48:00;;;;;;;4.93;1.95;;;;;;;21.03;44.15;99145.06;8197023;28;20043;-73
2022/05/31 13:52:25;;;;;;;2.67;1.80;;;;;;;21.06;43.80;99144.28;8197424;28;20499;-72
2022/05/31 13:56:26;;;;;;;3.08;1.60;;;;;;;21.01;44.56;99158.34;8201160;29;20109;-75
2022/05/31 14:00:48;;;;;;;5.30;2.53;;;;;;;20.93;44.26;99151.22;8202774;28;20055;-73
2022/05/31 14:05:03;;;;;;;4.43;2.15;;;;;;;20.86;44.50;99145.66;8194765;28;20518;-72
2022/05/31 14:09:06;;;;;;;4.95;2.30;;;;;;;20.77;45.43;99142.44;8185127;29;20420;-72
2022/05/31 14:13:09;;;;;;;3.15;1.90;;;;;;;20.78;45.78;99138.53;8185041;28;20533;-73
2022/05/31 14:17:30;;;;;;;2.78;1.83;;;;;;;20.62;45.92;99142.25;8184495;29;20043;-72
2022/05/31 14:21:41;;;;;;;3.20;1.88;;;;;;;20.67;45.56;99127.44;8182676;29;20047;-72
2022/05/31 14:25:46;;;;;;;7.03;1.83;;;;;;;20.93;45.08;99123.78;8178526;29;20058;-72
2022/05/31 14:30:07;;;;;;;4.75;1.60;;;;;;;21.60;44.93;99112.59;8197750;28;20050;-73
2022/05/31 14:34:16;;;;;;;4.15;1.95;;;;;;;23.86;41.32;99102.25;8181270;28;20047;-73
2022/05/31 14:38:26;;;;;;;6.68;1.88;;;;;;;26.37;37.23;99099.78;8183718;28;20404;-72
2022/05/31 14:42:33;;;;;;;4.82;1.90;;;;;;;28.77;33.05;99094.09;8173454;29;20449;-74
2022/05/31 14:46:37;;;;;;;5.28;1.83;;;;;;;30.63;30.21;99091.69;8185344;28;20074;-73
2022/05/31 14:50:40;;;;;;;3.97;1.80;;;;;;;30.82;29.23;99082.34;8182529;29;20568;-72
2022/05/31 14:54:43;;;;;;;3.40;1.67;;;;;;;27.99;32.30;99087.34;8180912;28;20056;-72
2022/05/31 14:58:59;;;;;;;2.42;1.70;;;;;;;25.92;34.42;99079.69;8190777;28;20047;-73
2022/05/31 15:03:03;;;;;;;6.07;1.80;;;;;;;25.36;35.63;99081.00;8179909;28;20504;-72
2022/05/31 15:07:07;;;;;;;3.65;1.90;;;;;;;24.93;35.95;99074.25;8179427;28;20043;-72
2022/05/31 15:19:52;;;;;;;3.38;1.65;;;;;;;26.75;34.34;99052.59;8188813;28;20063;-74
2022/05/31 15:23:53;;;;;;;5.05;1.55;;;;;;;26.68;33.97;99052.66;8178097;28;20143;-73
2022/05/31 15:27:54;;;;;;;3.95;1.80;;;;;;;26.49;33.10;99046.59;8182651;28;20413;-73
2022/05/31 15:31:55;;;;;;;2.63;1.63;;;;;;;25.59;33.83;99042.50;8189185;29;20044;-74
2022/05/31 15:35:56;;;;;;;3.08;1.45;;;;;;;25.17;34.50;99040.09;8183346;29;20055;-73
2022/05/31 15:39:57;;;;;;;3.10;1.48;;;;;;;24.69;34.79;99040.81;8185884;28;20079;-74
2022/05/31 15:44:00;;;;;;;3.45;1.98;;;;;;;24.56;34.49;99034.22;8173748;28;21208;-74
2022/05/31 15:48:03;;;;;;;3.17;1.70;;;;;;;24.04;35.18;99035.22;8177190;29;20055;-73
2022/05/31 15:52:13;;;;;;;3.60;1.80;;;;;;;23.79;35.58;99025.09;8201612;28;20053;-73
2022/05/31 15:56:15;;;;;;;2.30;1.50;;;;;;;23.66;35.66;99026.69;8190768;28;20674;-73
2022/05/31 16:00:21;;;;;;;4.15;1.58;;;;;;;23.69;35.99;99025.88;8183182;28;20040;-73
2022/05/31 16:04:27;;;;;;;4.57;1.73;;;;;;;23.53;35.95;99017.25;8179194;28;20055;-74
2022/05/31 16:08:30;;;;;;;2.33;1.60;;;;;;;23.28;35.71;99019.22;8214763;28;20055;-73
2022/05/31 16:12:32;;;;;;;6.93;2.55;;;;;;;23.07;36.61;99029.09;8204475;28;20423;-73
2022/05/31 16:16:33;;;;;;;12.15;5.40;;;;;;;22.93;37.69;99020.84;8177209;28;20094;-75
2022/05/31 16:20:38;;;;;;;15.38;2.30;;;;;;;22.73;38.02;99030.66;8189207;28;20479;-74
2022/05/31 16:24:40;;;;;;;4.28;1.73;;;;;;;22.64;37.94;99021.94;8190497;28;20114;-74
2022/05/31 16:28:41;;;;;;;9.88;2.03;;;;;;;22.58;38.06;99023.50;8175077;29;20571;-74
2022/05/31 16:32:42;;;;;;;5.88;1.70;;;;;;;22.47;38.38;99022.72;8180430;28;20054;-74
2022/05/31 16:36:43;;;;;;;4.18;2.13;;;;;;;22.41;38.09;99018.75;8178125;28;20051;-74
2022/05/31 16:45:04;;;;;;;3.75;1.95;;;;;;;22.48;38.52;99018.75;8178281;28;20452;-73
2022/05/31 16:49:05;;;;;;;3.45;2.00;;;;;;;22.36;38.32;99010.88;8178041;28;20106;-73
2022/05/31 16:53:08;;;;;;;3.75;1.90;;;;;;;22.24;38.53;99010.06;8178785;28;20043;-73
2022/05/31 16:57:09;;;;;;;5.20;2.33;;;;;;;22.07;38.83;99005.28;8175421;28;20098;-73
2022/05/31 17:01:10;;;;;;;6.03;3.40;;;;;;;21.88;39.14;98997.34;8179190;28;20047;-73
2022/05/31 17:05:11;;;;;;;10.73;6.35;;;;;;;21.76;39.47;98983.94;8151765;29;20433;-75
2022/05/31 17:17:54;;;;;;;5.78;2.20;;;;;;;21.28;41.15;98975.81;8175873;29;20047;-74
2022/05/31 17:21:55;;;;;;;5.75;2.92;;;;;;;21.04;41.73;98976.41;8156296;29;20048;-74
2022/05/31 17:26:01;;;;;;;16.38;7.90;;;;;;;20.81;42.17;98973.88;8189128;28;20074;-74
2022/05/31 17:30:04;;;;;;;11.02;4.95;;;;;;;20.57;43.08;98980.72;8176558;28;20436;-75
2022/05/31 17:34:06;;;;;;;9.07;3.33;;;;;;;20.37;44.10;98976.59;8205142;28;20188;-74
2022/05/31 17:38:12;;;;;;;4.88;3.08;;;;;;;20.21;44.28;98984.22;8210840;28;21434;-74
2022/05/31 17:42:13;;;;;;;12.30;6.60;;;;;;;20.10;44.36;98977.84;8206018;28;20054;-74
2022/05/31 17:46:14;;;;;;;12.73;8.05;;;;;;;19.96;44.92;98983.16;8196450;28;20067;-73
2022/05/31 17:50:15;;;;;;;7.80;4.03;;;;;;;19.86;45.12;98978.34;8184152;29;20054;-73
2022/05/31 17:54:28;;;;;;;6.43;4.43;;;;;;;19.68;45.04;98989.88;8182427;28;20043;-74
2022/05/31 17:58:33;;;;;;;7.45;3.40;;;;;;;19.60;44.74;98982.72;8184752;28;20043;-74
2022/05/31 18:02:35;;;;;;;4.03;2.30;;;;;;;19.50;44.72;98972.44;8175960;28;20039;-73
2022/05/31 18:06:38;;;;;;;5.18;2.25;;;;;;;19.41;44.90;98971.84;8184840;29;20052;-74
2022/05/31 18:10:39;;;;;;;3.90;2.28;;;;;;;19.32;45.08;98971.34;8196644;28;20077;-73
2022/05/31 18:14:40;;;;;;;4.00;2.40;;;;;;;19.27;44.93;98968.94;8194501;28;20118;-74
2022/05/31 18:18:41;;;;;;;3.63;2.20;;;;;;;19.19;45.14;98962.53;8184826;28;20564;-73
2022/05/31 18:22:43;;;;;;;4.60;2.28;;;;;;;19.12;44.71;98961.66;8189517;28;20051;-73
2022/05/31 18:26:45;;;;;;;4.28;1.77;;;;;;;19.03;44.83;98964.69;8197337;28;20039;-73
2022/05/31 18:30:49;;;;;;;3.83;2.13;;;;;;;18.94;44.71;98956.72;8182708;28;20500;-74
2022/05/31 18:34:52;;;;;;;7.30;2.33;;;;;;;18.82;45.07;98948.69;8186939;28;20059;-74
2022/05/31 18:38:59;;;;;;;7.40;2.42;;;;;;;18.68;45.26;98948.47;8178058;28;20404;-72
2022/05/31 18:43:09;;;;;;;4.20;2.28;;;;;;;18.60;45.11;98946.78;8171951;28;20072;-73
2022/05/31 18:47:14;;;;;;;4.70;3.08;;;;;;;18.45;45.79;98944.94;8200289;28;20043;-73
2022/05/31 18:51:15;;;;;;;7.57;3.30;;;;;;;18.27;46.42;98949.28;8201760;28;20047;-73
2022/05/31 18:55:16;;;;;;;4.82;3.08;;;;;;;18.15;46.87;98953.78;8202015;28;20075;-73
2022/05/31 18:59:18;;;;;;;6.55;3.25;;;;;;;18.07;47.34;98957.53;8202186;28;20098;-73
2022/05/31 19:03:20;;;;;;;6.13;3.28;;;;;;;18.08;47.02;98953.63;8213043;28;20075;-73
2022/05/31 19:07:21;;;;;;;6.75;3.53;;;;;;;18.05;47.43;98959.84;8199487;29;20522;-73
2022/05/31 19:11:23;;;;;;;5.78;3.13;;;;;;;17.98;47.52;98965.16;8192243;28;20126;-73
2022/05/31 19:15:26;;;;;;;9.63;3.20;;;;;;;17.92;47.75;98983.00;8198031;28;20047;-73
2022/05/31 19:19:28;;;;;;;7.57;3.17;;;;;;;17.80;48.60;98990.53;8184486;28;20051;-73
2022/05/31 19:23:29;;;;;;;11.07;3.15;;;;;;;17.63;49.72;98998.00;8207640;28;20407;-73
2022/05/31 19:27:30;;;;;;;5.57;2.60;;;;;;;17.55;50.61;99006.38;8191743;28;20296;-73
2022/05/31 19:31:34;;;;;;;7.55;2.90;;;;;;;17.44;51.43;99002.63;8178839;28;20515;-73
2022/05/31 19:35:38;;;;;;;12.98;3.15;;;;;;;17.29;52.40;98994.09;8219239;28;20400;-73
2022/05/31 19:39:41;;;;;;;8.80;3.47;;;;;;;17.07;53.50;98997.50;8192828;28;20150;-73
2022/05/31 19:43:42;;;;;;;5.45;3.30;;;;;;;16.90;54.58;98997.84;8220677;28;20047;-74
2022/05/31 19:47:44;;;;;;;9.73;3.58;;;;;;;16.72;55.31;99002.06;8214723;28;20046;-73
2022/05/31 19:51:46;;;;;;;9.55;2.97;;;;;;;16.52;55.91;99008.53;8220147;28;20051;-73
2022/05/31 19:55:48;;;;;;;6.43;2.95;;;;;;;16.41;56.50;99003.59;8214077;28;20046;-72
2022/05/31 19:59:49;;;;;;;6.43;3.22;;;;;;;16.37;56.82;99002.72;8196359;28;20063;-73
2022/05/31 20:03:51;;;;;;;14.57;3.60;;;;;;;16.29;57.39;98995.47;8181294;28;20051;-74
2022/05/31 20:07:52;;;;;;;12.13;4.80;;;;;;;16.19;57.90;98996.00;8181920;28;20107;-73
2022/05/31 20:11:55;;;;;;;12.52;5.05;;;;;;;16.02;58.68;98996.31;8184678;28;20102;-73